Birmingham, Illinois
Current Conditions -  °F | °C
As of 7:55 AM on Wednesday 28 Jan 2015 (Local Time) from KMQB Reporting Station
Clear Clear  
Wind Chill: -9°   Ceiling: Unl
Heat Index: -3°   Visibility: 7mi
Dew Point: -4°   Wind: 14mph
Humidity: 90%   Direction: 140°SE
Pressure: 30.21"   Gusts: NA
Location:  40.2814°N, 90.8526°W
Report Text: KMQB 281355Z AUTO 14012KT 7SM CLR M03/M04 A3021 RMK AO2 T10301044
Loading
Personal Weather Stations






























Interactive Weather Map New forecast layout! Learn more

10-Day Weather Forecast

Advertisements
Track Severe Weather on mobile